Terminal Aerodrome Forecast
Issued by NWS Wilmington, OH

Home | Current Version | Previous Version | Text Only | Print | Product List | Glossary On
Versions: 1 2 3 4 5 6 7 8 9 10 11 12 13 14 15 16
000
FTUS41 KILN 231700
TAFILN
TAF
KILN 231730Z 2318/2418 34007KT P6SM SCT035
     FM240000 04004KT P6SM BKN200
     FM240600 08005KT P6SM OVC120
     FM241500 14011KT P6SM SCT120 BKN200=

USA.gov is the U.S. government's official web portal to all federal, state and local government web resources and services.